sensor_id;sensor_type;location;lat;lon;timestamp;pressure;altitude;pressure_sealevel;temperature;humidity
50349;BME280;36250;48.740;22.174;2023-03-01T00:01:18;101619.44;;;1.18;72.65
50349;BME280;36250;48.740;22.174;2023-03-01T00:03:44;101611.56;;;1.17;73.21
50349;BME280;36250;48.740;22.174;2023-03-01T00:06:09;101615.22;;;1.16;73.06
50349;BME280;36250;48.740;22.174;2023-03-01T00:08:35;101612.94;;;1.21;72.74
50349;BME280;36250;48.740;22.174;2023-03-01T00:11:06;101598.75;;;1.28;72.34
50349;BME280;36250;48.740;22.174;2023-03-01T00:13:33;101603.16;;;1.38;72.34
50349;BME280;36250;48.740;22.174;2023-03-01T00:15:59;101600.56;;;1.46;72.08
50349;BME280;36250;48.740;22.174;2023-03-01T00:18:26;101593.38;;;1.54;72.09
50349;BME280;36250;48.740;22.174;2023-03-01T00:20:52;101594.78;;;1.58;71.71
50349;BME280;36250;48.740;22.174;2023-03-01T00:23:18;101606.56;;;1.65;71.78
50349;BME280;36250;48.740;22.174;2023-03-01T00:25:43;101600.88;;;1.68;71.20
50349;BME280;36250;48.740;22.174;2023-03-01T00:28:09;101592.16;;;1.66;71.45
50349;BME280;36250;48.740;22.174;2023-03-01T00:30:34;101593.50;;;1.70;70.99
50349;BME280;36250;48.740;22.174;2023-03-01T00:33:00;101594.72;;;1.76;70.90
50349;BME280;36250;48.740;22.174;2023-03-01T00:35:25;101590.03;;;1.78;71.31
50349;BME280;36250;48.740;22.174;2023-03-01T00:37:50;101593.56;;;1.78;70.98
50349;BME280;36250;48.740;22.174;2023-03-01T00:40:28;101591.84;;;1.77;70.97
50349;BME280;36250;48.740;22.174;2023-03-01T00:42:54;101582.13;;;1.76;71.35
50349;BME280;36250;48.740;22.174;2023-03-01T00:45:20;101580.44;;;1.75;71.45
50349;BME280;36250;48.740;22.174;2023-03-01T00:47:46;101570.19;;;1.71;71.11
50349;BME280;36250;48.740;22.174;2023-03-01T00:50:11;101578.75;;;1.74;71.15
50349;BME280;36250;48.740;22.174;2023-03-01T00:52:37;101572.41;;;1.75;71.17
50349;BME280;36250;48.740;22.174;2023-03-01T00:55:04;101574.06;;;1.76;71.27
50349;BME280;36250;48.740;22.174;2023-03-01T00:57:30;101568.03;;;1.74;71.30
50349;BME280;36250;48.740;22.174;2023-03-01T00:59:55;101567.66;;;1.69;71.05
50349;BME280;36250;48.740;22.174;2023-03-01T01:02:21;101566.81;;;1.69;71.19
50349;BME280;36250;48.740;22.174;2023-03-01T01:04:47;101569.47;;;1.69;71.16
50349;BME280;36250;48.740;22.174;2023-03-01T01:07:13;101565.75;;;1.62;71.04
50349;BME280;36250;48.740;22.174;2023-03-01T01:09:38;101570.75;;;1.57;70.78
50349;BME280;36250;48.740;22.174;2023-03-01T01:12:04;101568.56;;;1.52;71.45
50349;BME280;36250;48.740;22.174;2023-03-01T01:14:30;101573.94;;;1.52;71.41
50349;BME280;36250;48.740;22.174;2023-03-01T01:16:55;101571.41;;;1.51;71.87
50349;BME280;36250;48.740;22.174;2023-03-01T01:19:21;101568.56;;;1.52;71.45
50349;BME280;36250;48.740;22.174;2023-03-01T01:21:47;101562.34;;;1.52;72.08
50349;BME280;36250;48.740;22.174;2023-03-01T01:24:14;101558.84;;;1.51;71.63
50349;BME280;36250;48.740;22.174;2023-03-01T01:26:40;101564.34;;;1.50;71.43
50349;BME280;36250;48.740;22.174;2023-03-01T01:29:06;101568.34;;;1.46;71.49
50349;BME280;36250;48.740;22.174;2023-03-01T01:31:32;101555.66;;;1.30;71.82
50349;BME280;36250;48.740;22.174;2023-03-01T01:33:59;101568.13;;;1.13;72.38
50349;BME280;36250;48.740;22.174;2023-03-01T01:36:25;101561.50;;;1.00;73.09
50349;BME280;36250;48.740;22.174;2023-03-01T01:38:51;101564.56;;;0.87;73.16
50349;BME280;36250;48.740;22.174;2023-03-01T01:41:17;101567.03;;;0.81;73.29
50349;BME280;36250;48.740;22.174;2023-03-01T01:43:48;101564.66;;;0.78;73.45
50349;BME280;36250;48.740;22.174;2023-03-01T01:46:31;101565.63;;;0.77;73.30
50349;BME280;36250;48.740;22.174;2023-03-01T01:51:39;101552.69;;;0.72;74.12
50349;BME280;36250;48.740;22.174;2023-03-01T01:54:10;101556.34;;;0.71;74.30
50349;BME280;36250;48.740;22.174;2023-03-01T01:56:40;101549.34;;;0.70;74.38
50349;BME280;36250;48.740;22.174;2023-03-01T01:59:08;101550.19;;;0.71;74.62
50349;BME280;36250;48.740;22.174;2023-03-01T02:01:34;101554.69;;;0.70;74.33
50349;BME280;36250;48.740;22.174;2023-03-01T02:03:59;101546.09;;;0.66;74.62
50349;BME280;36250;48.740;22.174;2023-03-01T02:06:28;101546.09;;;0.66;74.04
50349;BME280;36250;48.740;22.174;2023-03-01T02:09:01;101555.28;;;0.64;74.86
50349;BME280;36250;48.740;22.174;2023-03-01T02:11:27;101553.63;;;0.63;74.87
50349;BME280;36250;48.740;22.174;2023-03-01T02:13:54;101552.09;;;0.60;75.04
50349;BME280;36250;48.740;22.174;2023-03-01T02:16:20;101553.25;;;0.76;74.88
50349;BME280;36250;48.740;22.174;2023-03-01T02:18:46;101552.00;;;0.88;74.36
50349;BME280;36250;48.740;22.174;2023-03-01T02:21:22;101548.00;;;0.92;74.61
50349;BME280;36250;48.740;22.174;2023-03-01T02:23:53;101545.13;;;0.85;74.18
50349;BME280;36250;48.740;22.174;2023-03-01T02:26:41;101540.53;;;0.78;75.40
50349;BME280;36250;48.740;22.174;2023-03-01T02:29:07;101552.22;;;0.77;75.98
50349;BME280;36250;48.740;22.174;2023-03-01T02:31:33;101551.72;;;0.73;76.12
50349;BME280;36250;48.740;22.174;2023-03-01T02:34:13;101549.47;;;0.68;76.24
50349;BME280;36250;48.740;22.174;2023-03-01T02:36:52;101556.22;;;0.55;76.89
50349;BME280;36250;48.740;22.174;2023-03-01T02:39:31;101543.59;;;0.47;77.02
50349;BME280;36250;48.740;22.174;2023-03-01T02:41:58;101556.59;;;0.42;76.78
50349;BME280;36250;48.740;22.174;2023-03-01T02:44:25;101555.22;;;0.38;77.14
50349;BME280;36250;48.740;22.174;2023-03-01T02:46:53;101574.94;;;0.37;77.28
50349;BME280;36250;48.740;22.174;2023-03-01T02:49:29;101567.81;;;0.28;77.16
50349;BME280;36250;48.740;22.174;2023-03-01T02:52:30;101564.75;;;0.23;77.41
50349;BME280;36250;48.740;22.174;2023-03-01T02:55:14;101559.97;;;0.17;77.62
50349;BME280;36250;48.740;22.174;2023-03-01T02:57:44;101553.41;;;0.12;77.68
50349;BME280;36250;48.740;22.174;2023-03-01T03:00:18;101559.63;;;0.12;77.97
50349;BME280;36250;48.740;22.174;2023-03-01T03:02:48;101561.00;;;0.16;77.86
50349;BME280;36250;48.740;22.174;2023-03-01T03:05:19;101561.50;;;0.20;77.89
50349;BME280;36250;48.740;22.174;2023-03-01T03:07:46;101556.31;;;0.18;77.72
50349;BME280;36250;48.740;22.174;2023-03-01T03:10:16;101552.09;;;0.16;77.72
50349;BME280;36250;48.740;22.174;2023-03-01T03:12:42;101550.00;;;0.19;77.33
50349;BME280;36250;48.740;22.174;2023-03-01T03:15:09;101539.81;;;0.23;77.40
50349;BME280;36250;48.740;22.174;2023-03-01T03:17:40;101554.72;;;0.25;77.12
50349;BME280;36250;48.740;22.174;2023-03-01T03:20:07;101558.94;;;0.28;76.77
50349;BME280;36250;48.740;22.174;2023-03-01T03:22:38;101558.25;;;0.26;76.71
50349;BME280;36250;48.740;22.174;2023-03-01T03:25:05;101559.41;;;0.23;76.71
50349;BME280;36250;48.740;22.174;2023-03-01T03:27:30;101562.38;;;0.20;76.80
50349;BME280;36250;48.740;22.174;2023-03-01T03:29:57;101549.59;;;0.14;76.53
50349;BME280;36250;48.740;22.174;2023-03-01T03:32:22;101544.94;;;0.16;76.66
50349;BME280;36250;48.740;22.174;2023-03-01T03:34:47;101553.94;;;0.15;76.47
50349;BME280;36250;48.740;22.174;2023-03-01T03:37:14;101552.28;;;0.14;76.44
50349;BME280;36250;48.740;22.174;2023-03-01T03:39:59;101550.19;;;0.08;76.93
50349;BME280;36250;48.740;22.174;2023-03-01T03:42:24;101552.16;;;0.06;76.90
50349;BME280;36250;48.740;22.174;2023-03-01T03:44:50;101540.78;;;0.04;77.16
50349;BME280;36250;48.740;22.174;2023-03-01T03:47:15;101546.25;;;0.03;76.96
50349;BME280;36250;48.740;22.174;2023-03-01T03:49:40;101544.75;;;0.00;76.89
50349;BME280;36250;48.740;22.174;2023-03-01T03:52:06;101539.41;;;0.00;77.27
50349;BME280;36250;48.740;22.174;2023-03-01T03:54:39;101540.38;;;-0.01;76.63
50349;BME280;36250;48.740;22.174;2023-03-01T03:57:04;101530.66;;;-0.02;76.99
50349;BME280;36250;48.740;22.174;2023-03-01T03:59:30;101532.63;;;-0.04;76.80
50349;BME280;36250;48.740;22.174;2023-03-01T04:02:13;101535.94;;;-0.10;76.78
50349;BME280;36250;48.740;22.174;2023-03-01T04:04:49;101537.81;;;-0.20;76.63
50349;BME280;36250;48.740;22.174;2023-03-01T04:07:18;101533.72;;;-0.24;77.02
50349;BME280;36250;48.740;22.174;2023-03-01T04:13:07;101527.44;;;-0.33;77.73
50349;BME280;36250;48.740;22.174;2023-03-01T04:15:33;101526.31;;;-0.30;77.70
50349;BME280;36250;48.740;22.174;2023-03-01T04:17:59;101520.41;;;-0.34;77.69
50349;BME280;36250;48.740;22.174;2023-03-01T04:20:27;101524.94;;;-0.34;77.98
50349;BME280;36250;48.740;22.174;2023-03-01T04:25:23;101520.50;;;-0.26;77.61
50349;BME280;36250;48.740;22.174;2023-03-01T04:27:49;101527.41;;;-0.23;77.77
50349;BME280;36250;48.740;22.174;2023-03-01T04:30:14;101526.53;;;-0.24;77.66
50349;BME280;36250;48.740;22.174;2023-03-01T04:32:40;101541.47;;;-0.21;77.71
50349;BME280;36250;48.740;22.174;2023-03-01T04:35:05;101542.59;;;-0.24;77.16
50349;BME280;36250;48.740;22.174;2023-03-01T04:37:31;101535.59;;;-0.25;77.02
50349;BME280;36250;48.740;22.174;2023-03-01T04:39:56;101533.03;;;-0.26;77.20
50349;BME280;36250;48.740;22.174;2023-03-01T04:42:21;101540.09;;;-0.25;76.92
50349;BME280;36250;48.740;22.174;2023-03-01T04:44:46;101528.53;;;-0.26;76.98
50349;BME280;36250;48.740;22.174;2023-03-01T04:47:12;101533.03;;;-0.26;77.24
50349;BME280;36250;48.740;22.174;2023-03-01T04:49:37;101527.69;;;-0.26;77.36
50349;BME280;36250;48.740;22.174;2023-03-01T04:52:04;101525.16;;;-0.28;77.94
50349;BME280;36250;48.740;22.174;2023-03-01T04:54:33;101535.19;;;-0.30;78.32
50349;BME280;36250;48.740;22.174;2023-03-01T04:57:00;101529.44;;;-0.35;78.38
50349;BME280;36250;48.740;22.174;2023-03-01T04:59:27;101530.84;;;-0.40;79.44
50349;BME280;36250;48.740;22.174;2023-03-01T05:01:54;101519.47;;;-0.42;79.84
50349;BME280;36250;48.740;22.174;2023-03-01T05:04:22;101517.34;;;-0.48;80.34
50349;BME280;36250;48.740;22.174;2023-03-01T05:06:47;101524.56;;;-0.58;80.66
50349;BME280;36250;48.740;22.174;2023-03-01T05:09:13;101521.38;;;-0.62;80.72
50349;BME280;36250;48.740;22.174;2023-03-01T05:11:38;101526.84;;;-0.63;81.05
50349;BME280;36250;48.740;22.174;2023-03-01T05:14:04;101528.53;;;-0.62;81.32
50349;BME280;36250;48.740;22.174;2023-03-01T05:16:30;101537.53;;;-0.63;81.19
50349;BME280;36250;48.740;22.174;2023-03-01T05:18:56;101525.84;;;-0.62;81.06
50349;BME280;36250;48.740;22.174;2023-03-01T05:21:22;101535.00;;;-0.65;80.50
50349;BME280;36250;48.740;22.174;2023-03-01T05:23:48;101543.88;;;-0.64;80.75
50349;BME280;36250;48.740;22.174;2023-03-01T05:26:15;101530.94;;;-0.59;80.75
50349;BME280;36250;48.740;22.174;2023-03-01T05:28:42;101532.47;;;-0.57;80.47
50349;BME280;36250;48.740;22.174;2023-03-01T05:31:07;101535.38;;;-0.50;80.44
50349;BME280;36250;48.740;22.174;2023-03-01T05:33:38;101526.06;;;-0.46;80.58
50349;BME280;36250;48.740;22.174;2023-03-01T05:36:05;101529.47;;;-0.44;80.34
50349;BME280;36250;48.740;22.174;2023-03-01T05:38:31;101530.00;;;-0.41;80.37
50349;BME280;36250;48.740;22.174;2023-03-01T05:40:56;101542.00;;;-0.45;80.45
50349;BME280;36250;48.740;22.174;2023-03-01T05:43:22;101541.84;;;-0.43;80.00
50349;BME280;36250;48.740;22.174;2023-03-01T05:45:47;101541.38;;;-0.39;80.30
50349;BME280;36250;48.740;22.174;2023-03-01T05:48:13;101545.16;;;-0.32;80.01
50349;BME280;36250;48.740;22.174;2023-03-01T05:50:41;101533.72;;;-0.24;80.29
50349;BME280;36250;48.740;22.174;2023-03-01T05:55:37;101528.38;;;0.03;78.98
50349;BME280;36250;48.740;22.174;2023-03-01T05:58:06;101524.34;;;0.17;78.90
50349;BME280;36250;48.740;22.174;2023-03-01T06:00:32;101518.31;;;0.32;78.62
50349;BME280;36250;48.740;22.174;2023-03-01T06:02:59;101526.53;;;0.48;78.20
50349;BME280;36250;48.740;22.174;2023-03-01T06:05:25;101526.28;;;0.59;78.20
50349;BME280;36250;48.740;22.174;2023-03-01T06:07:51;101537.75;;;0.70;77.39
50349;BME280;36250;48.740;22.174;2023-03-01T06:10:18;101536.63;;;0.72;76.78
50349;BME280;36250;48.740;22.174;2023-03-01T06:12:43;101532.78;;;0.75;76.63
50349;BME280;36250;48.740;22.174;2023-03-01T06:15:11;101535.16;;;0.78;76.71
50349;BME280;36250;48.740;22.174;2023-03-01T06:17:39;101538.22;;;0.83;76.50
50349;BME280;36250;48.740;22.174;2023-03-01T06:20:10;101541.97;;;0.90;76.34
50349;BME280;36250;48.740;22.174;2023-03-01T06:22:36;101537.97;;;0.94;76.18
50349;BME280;36250;48.740;22.174;2023-03-01T06:25:02;101543.72;;;0.99;75.67
50349;BME280;36250;48.740;22.174;2023-03-01T06:27:28;101531.91;;;1.09;76.22
50349;BME280;36250;48.740;22.174;2023-03-01T06:29:53;101527.75;;;1.15;75.86
50349;BME280;36250;48.740;22.174;2023-03-01T06:32:19;101534.19;;;1.22;75.24
50349;BME280;36250;48.740;22.174;2023-03-01T06:34:44;101519.56;;;1.16;75.29
50349;BME280;36250;48.740;22.174;2023-03-01T06:37:09;101517.34;;;1.12;75.32
50349;BME280;36250;48.740;22.174;2023-03-01T06:39:35;101515.50;;;1.12;75.37
50349;BME280;36250;48.740;22.174;2023-03-01T06:42:00;101515.84;;;1.17;75.97
50349;BME280;36250;48.740;22.174;2023-03-01T06:44:26;101524.75;;;1.18;76.01
50349;BME280;36250;48.740;22.174;2023-03-01T06:46:51;101529.63;;;1.22;75.91
50349;BME280;36250;48.740;22.174;2023-03-01T06:49:17;101530.84;;;1.28;76.32
50349;BME280;36250;48.740;22.174;2023-03-01T06:51:43;101533.72;;;1.34;76.03
50349;BME280;36250;48.740;22.174;2023-03-01T06:54:09;101542.53;;;1.45;76.59
50349;BME280;36250;48.740;22.174;2023-03-01T06:56:35;101547.44;;;1.49;76.04
50349;BME280;36250;48.740;22.174;2023-03-01T06:59:00;101543.63;;;1.60;76.16
50349;BME280;36250;48.740;22.174;2023-03-01T07:01:25;101539.16;;;1.68;75.27
50349;BME280;36250;48.740;22.174;2023-03-01T07:03:51;101545.88;;;1.72;75.66
50349;BME280;36250;48.740;22.174;2023-03-01T07:06:16;101549.28;;;1.82;75.07
50349;BME280;36250;48.740;22.174;2023-03-01T07:08:42;101539.56;;;1.89;74.82
50349;BME280;36250;48.740;22.174;2023-03-01T07:11:08;101542.78;;;1.93;74.63
50349;BME280;36250;48.740;22.174;2023-03-01T07:13:33;101548.16;;;2.01;74.24
50349;BME280;36250;48.740;22.174;2023-03-01T07:15:59;101535.78;;;2.08;74.55
50349;BME280;36250;48.740;22.174;2023-03-01T07:18:24;101536.13;;;2.13;74.43
50349;BME280;36250;48.740;22.174;2023-03-01T07:20:49;101543.38;;;2.21;73.94
50349;BME280;36250;48.740;22.174;2023-03-01T07:23:15;101527.25;;;2.21;74.04
50349;BME280;36250;48.740;22.174;2023-03-01T07:25:40;101524.59;;;2.29;74.09
50349;BME280;36250;48.740;22.174;2023-03-01T07:28:06;101522.75;;;2.37;73.78
50349;BME280;36250;48.740;22.174;2023-03-01T07:30:31;101520.25;;;2.52;73.59
50349;BME280;36250;48.740;22.174;2023-03-01T07:32:57;101525.00;;;2.66;72.97
50349;BME280;36250;48.740;22.174;2023-03-01T07:35:24;101509.72;;;2.75;73.38
50349;BME280;36250;48.740;22.174;2023-03-01T07:37:50;101518.28;;;2.86;72.84
50349;BME280;36250;48.740;22.174;2023-03-01T07:40:15;101522.34;;;2.98;72.70
50349;BME280;36250;48.740;22.174;2023-03-01T07:42:41;101515.59;;;3.10;71.50
50349;BME280;36250;48.740;22.174;2023-03-01T07:45:06;101519.94;;;3.19;72.11
50349;BME280;36250;48.740;22.174;2023-03-01T07:47:32;101517.25;;;3.27;71.43
50349;BME280;36250;48.740;22.174;2023-03-01T07:49:57;101516.22;;;3.37;71.03
50349;BME280;36250;48.740;22.174;2023-03-01T07:52:23;101519.19;;;3.50;70.63
50349;BME280;36250;48.740;22.174;2023-03-01T07:54:48;101526.94;;;3.53;70.46
50349;BME280;36250;48.740;22.174;2023-03-01T07:57:14;101512.47;;;3.54;70.31
50349;BME280;36250;48.740;22.174;2023-03-01T07:59:39;101514.00;;;3.48;70.80
50349;BME280;36250;48.740;22.174;2023-03-01T08:02:05;101507.09;;;3.62;70.99
50349;BME280;36250;48.740;22.174;2023-03-01T08:04:31;101505.81;;;3.80;70.75
50349;BME280;36250;48.740;22.174;2023-03-01T08:06:57;101505.63;;;3.82;68.56
50349;BME280;36250;48.740;22.174;2023-03-01T08:09:23;101505.47;;;3.83;69.11
50349;BME280;36250;48.740;22.174;2023-03-01T08:11:49;101508.97;;;3.92;68.76
50349;BME280;36250;48.740;22.174;2023-03-01T08:14:14;101503.56;;;4.00;68.30
50349;BME280;36250;48.740;22.174;2023-03-01T08:16:39;101500.50;;;4.03;68.47
50349;BME280;36250;48.740;22.174;2023-03-01T08:19:10;101499.78;;;4.09;67.43
50349;BME280;36250;48.740;22.174;2023-03-01T08:21:35;101499.63;;;4.11;67.52
50349;BME280;36250;48.740;22.174;2023-03-01T08:24:04;101499.94;;;4.16;67.84
50349;BME280;36250;48.740;22.174;2023-03-01T08:26:31;101506.97;;;4.25;67.31
50349;BME280;36250;48.740;22.174;2023-03-01T08:28:56;101504.56;;;4.30;66.13
50349;BME280;36250;48.740;22.174;2023-03-01T08:31:27;101503.38;;;4.32;67.62
50349;BME280;36250;48.740;22.174;2023-03-01T08:33:55;101499.31;;;4.36;67.66
50349;BME280;36250;48.740;22.174;2023-03-01T08:36:32;101501.94;;;4.44;67.20
50349;BME280;36250;48.740;22.174;2023-03-01T08:38:58;101498.47;;;4.58;65.65
50349;BME280;36250;48.740;22.174;2023-03-01T08:41:24;101498.78;;;4.63;66.06
50349;BME280;36250;48.740;22.174;2023-03-01T08:43:49;101497.69;;;4.73;65.69
50349;BME280;36250;48.740;22.174;2023-03-01T08:46:14;101486.34;;;4.77;65.43
50349;BME280;36250;48.740;22.174;2023-03-01T08:48:40;101477.75;;;4.82;65.97
50349;BME280;36250;48.740;22.174;2023-03-01T08:51:16;101481.00;;;4.92;64.85
50349;BME280;36250;48.740;22.174;2023-03-01T08:53:42;101478.44;;;4.98;64.78
50349;BME280;36250;48.740;22.174;2023-03-01T08:56:08;101482.44;;;5.02;63.93
50349;BME280;36250;48.740;22.174;2023-03-01T08:58:34;101475.63;;;5.06;63.68
50349;BME280;36250;48.740;22.174;2023-03-01T09:00:59;101462.91;;;5.15;64.11
50349;BME280;36250;48.740;22.174;2023-03-01T09:03:25;101471.22;;;5.13;63.82
50349;BME280;36250;48.740;22.174;2023-03-01T09:05:51;101471.38;;;5.26;63.56
50349;BME280;36250;48.740;22.174;2023-03-01T09:08:18;101476.88;;;5.33;62.69
50349;BME280;36250;48.740;22.174;2023-03-01T09:10:43;101470.28;;;5.36;61.98
50349;BME280;36250;48.740;22.174;2023-03-01T09:13:09;101471.31;;;5.49;61.83
50349;BME280;36250;48.740;22.174;2023-03-01T09:15:37;101480.53;;;5.55;61.87
50349;BME280;36250;48.740;22.174;2023-03-01T09:18:02;101482.47;;;5.46;61.09
50349;BME280;36250;48.740;22.174;2023-03-01T09:20:27;101471.03;;;5.44;61.34
50349;BME280;36250;48.740;22.174;2023-03-01T09:22:53;101475.22;;;5.47;60.49
50349;BME280;36250;48.740;22.174;2023-03-01T09:25:18;101478.94;;;5.46;60.90
50349;BME280;36250;48.740;22.174;2023-03-01T09:27:43;101480.16;;;5.58;61.26
50349;BME280;36250;48.740;22.174;2023-03-01T09:30:09;101467.41;;;5.66;60.92
50349;BME280;36250;48.740;22.174;2023-03-01T09:32:35;101470.94;;;5.81;60.83
50349;BME280;36250;48.740;22.174;2023-03-01T09:35:00;101458.06;;;5.83;60.40
50349;BME280;36250;48.740;22.174;2023-03-01T09:37:26;101456.03;;;5.85;59.92
50349;BME280;36250;48.740;22.174;2023-03-01T09:39:52;101450.97;;;5.82;59.90
50349;BME280;36250;48.740;22.174;2023-03-01T09:42:17;101449.50;;;5.94;60.23
50349;BME280;36250;48.740;22.174;2023-03-01T09:44:56;101446.41;;;5.97;59.48
50349;BME280;36250;48.740;22.174;2023-03-01T09:47:29;101449.66;;;6.08;59.79
50349;BME280;36250;48.740;22.174;2023-03-01T09:50:21;101437.97;;;6.22;60.27
50349;BME280;36250;48.740;22.174;2023-03-01T09:58:34;101425.78;;;6.53;59.09
50349;BME280;36250;48.740;22.174;2023-03-01T10:01:20;101427.78;;;6.66;59.70
50349;BME280;36250;48.740;22.174;2023-03-01T10:06:52;101422.94;;;6.83;58.95
50349;BME280;36250;48.740;22.174;2023-03-01T10:09:23;101416.00;;;7.01;57.79
50349;BME280;36250;48.740;22.174;2023-03-01T10:11:50;101420.22;;;7.10;57.41
50349;BME280;36250;48.740;22.174;2023-03-01T10:16:55;101407.19;;;7.20;58.36
50349;BME280;36250;48.740;22.174;2023-03-01T10:22:11;101402.97;;;7.46;57.71
50349;BME280;36250;48.740;22.174;2023-03-01T10:24:38;101393.00;;;7.53;57.17
50349;BME280;36250;48.740;22.174;2023-03-01T10:27:14;101399.06;;;7.68;57.79
50349;BME280;36250;48.740;22.174;2023-03-01T10:32:46;101393.31;;;7.77;55.62
50349;BME280;36250;48.740;22.174;2023-03-01T10:35:19;101398.94;;;7.82;55.63
50349;BME280;36250;48.740;22.174;2023-03-01T10:38:04;101399.38;;;7.86;56.48
50349;BME280;36250;48.740;22.174;2023-03-01T10:40:32;101401.91;;;7.94;54.89
50349;BME280;36250;48.740;22.174;2023-03-01T10:43:00;101390.84;;;7.95;55.77
50349;BME280;36250;48.740;22.174;2023-03-01T10:50:39;101382.44;;;8.31;54.85
50349;BME280;36250;48.740;22.174;2023-03-01T10:55:42;101377.97;;;8.17;55.89
50349;BME280;36250;48.740;22.174;2023-03-01T11:00:52;101372.41;;;8.38;55.08
50349;BME280;36250;48.740;22.174;2023-03-01T11:06:21;101368.25;;;8.36;54.23
50349;BME280;36250;48.740;22.174;2023-03-01T11:08:49;101356.31;;;8.37;54.21
50349;BME280;36250;48.740;22.174;2023-03-01T11:11:20;101342.78;;;8.43;54.26
50349;BME280;36250;48.740;22.174;2023-03-01T11:16:46;101333.19;;;8.61;52.96
50349;BME280;36250;48.740;22.174;2023-03-01T11:24:40;101311.84;;;8.84;53.44
50349;BME280;36250;48.740;22.174;2023-03-01T11:29:45;101298.00;;;9.05;53.47
50349;BME280;36250;48.740;22.174;2023-03-01T11:32:13;101291.31;;;9.14;51.91
50349;BME280;36250;48.740;22.174;2023-03-01T11:37:34;101292.53;;;9.18;52.39
50349;BME280;36250;48.740;22.174;2023-03-01T11:40:29;101290.38;;;9.33;51.63
50349;BME280;36250;48.740;22.174;2023-03-01T11:49:03;101281.44;;;9.70;50.85
50349;BME280;36250;48.740;22.174;2023-03-01T11:51:46;101270.44;;;9.83;51.54
50349;BME280;36250;48.740;22.174;2023-03-01T11:57:00;101262.59;;;10.00;51.35
50349;BME280;36250;48.740;22.174;2023-03-01T11:59:48;101258.94;;;10.19;50.41
50349;BME280;36250;48.740;22.174;2023-03-01T12:11:03;101234.56;;;10.49;49.44
50349;BME280;36250;48.740;22.174;2023-03-01T12:18:55;101233.09;;;10.71;48.32
50349;BME280;36250;48.740;22.174;2023-03-01T12:22:06;101224.69;;;10.91;47.43
50349;BME280;36250;48.740;22.174;2023-03-01T12:27:35;101220.72;;;11.23;48.00
50349;BME280;36250;48.740;22.174;2023-03-01T12:30:36;101220.78;;;11.35;46.50
50349;BME280;36250;48.740;22.174;2023-03-01T12:49:51;101196.19;;;15.85;36.90
50349;BME280;36250;48.740;22.174;2023-03-01T12:52:33;101187.19;;;16.21;35.45
50349;BME280;36250;48.740;22.174;2023-03-01T12:55:02;101180.75;;;17.66;34.50
50349;BME280;36250;48.740;22.174;2023-03-01T12:57:42;101179.41;;;20.06;28.76
50349;BME280;36250;48.740;22.174;2023-03-01T13:00:22;101167.88;;;22.66;26.11
50349;BME280;36250;48.740;22.174;2023-03-01T13:11:28;101162.47;;;26.64;19.25
50349;BME280;36250;48.740;22.174;2023-03-01T13:16:51;101146.34;;;27.08;19.33
50349;BME280;36250;48.740;22.174;2023-03-01T13:21:43;101147.66;;;26.72;19.27
50349;BME280;36250;48.740;22.174;2023-03-01T13:24:25;101146.06;;;26.63;18.87
50349;BME280;36250;48.740;22.174;2023-03-01T13:29:47;101137.59;;;26.80;18.75
50349;BME280;36250;48.740;22.174;2023-03-01T13:32:26;101129.47;;;25.86;19.23
50349;BME280;36250;48.740;22.174;2023-03-01T13:35:04;101126.50;;;25.91;18.47
50349;BME280;36250;48.740;22.174;2023-03-01T13:37:48;101119.97;;;25.70;20.01
50349;BME280;36250;48.740;22.174;2023-03-01T13:42:48;101115.19;;;25.79;19.37
50349;BME280;36250;48.740;22.174;2023-03-01T13:45:34;101109.41;;;25.92;19.76
50349;BME280;36250;48.740;22.174;2023-03-01T13:48:36;101106.84;;;25.44;19.57
50349;BME280;36250;48.740;22.174;2023-03-01T13:51:04;101109.38;;;24.98;19.78
50349;BME280;36250;48.740;22.174;2023-03-01T13:53:34;101099.53;;;25.09;19.77
50349;BME280;36250;48.740;22.174;2023-03-01T13:56:24;101105.59;;;24.94;20.73
50349;BME280;36250;48.740;22.174;2023-03-01T13:58:53;101095.53;;;24.76;20.11
50349;BME280;36250;48.740;22.174;2023-03-01T14:01:21;101103.28;;;24.17;20.55
50349;BME280;36250;48.740;22.174;2023-03-01T14:03:47;101105.47;;;23.76;20.27
50349;BME280;36250;48.740;22.174;2023-03-01T14:06:15;101106.41;;;23.36;20.52
50349;BME280;36250;48.740;22.174;2023-03-01T14:08:47;101109.47;;;23.92;21.47
50349;BME280;36250;48.740;22.174;2023-03-01T14:16:38;101102.66;;;23.98;20.07
50349;BME280;36250;48.740;22.174;2023-03-01T14:21:38;101103.59;;;23.00;21.74
50349;BME280;36250;48.740;22.174;2023-03-01T14:24:03;101101.78;;;23.31;21.37
50349;BME280;36250;48.740;22.174;2023-03-01T14:26:29;101098.81;;;23.28;21.39
50349;BME280;36250;48.740;22.174;2023-03-01T14:28:56;101100.06;;;22.40;22.18
50349;BME280;36250;48.740;22.174;2023-03-01T14:31:39;101094.53;;;22.13;22.76
50349;BME280;36250;48.740;22.174;2023-03-01T14:34:05;101097.94;;;21.91;22.93
50349;BME280;36250;48.740;22.174;2023-03-01T14:36:33;101096.47;;;22.26;21.79
50349;BME280;36250;48.740;22.174;2023-03-01T14:38:58;101094.06;;;22.06;22.82
50349;BME280;36250;48.740;22.174;2023-03-01T14:41:32;101080.50;;;21.91;23.16
50349;BME280;36250;48.740;22.174;2023-03-01T14:44:02;101084.44;;;22.31;22.26
50349;BME280;36250;48.740;22.174;2023-03-01T14:46:41;101091.06;;;22.35;22.86
50349;BME280;36250;48.740;22.174;2023-03-01T14:49:15;101090.34;;;21.97;22.69
50349;BME280;36250;48.740;22.174;2023-03-01T14:51:48;101092.22;;;22.01;23.17
50349;BME280;36250;48.740;22.174;2023-03-01T14:56:59;101079.66;;;21.90;22.13
50349;BME280;36250;48.740;22.174;2023-03-01T14:59:25;101081.09;;;21.37;21.39
50349;BME280;36250;48.740;22.174;2023-03-01T15:01:51;101092.88;;;20.63;22.92
50349;BME280;36250;48.740;22.174;2023-03-01T15:04:19;101085.50;;;21.19;19.11